sensor_id;sensor_type;location;lat;lon;timestamp;temperature;humidity
80495;DHT22;69819;48.798;11.770;2024-02-23T00:01:15;14.20;55.50
80495;DHT22;69819;48.798;11.770;2024-02-23T00:03:41;14.20;55.40
80495;DHT22;69819;48.798;11.770;2024-02-23T00:06:07;14.20;55.50
80495;DHT22;69819;48.798;11.770;2024-02-23T00:08:34;14.10;55.40
80495;DHT22;69819;48.798;11.770;2024-02-23T00:11:00;14.10;55.40
80495;DHT22;69819;48.798;11.770;2024-02-23T00:13:25;14.10;55.40
80495;DHT22;69819;48.798;11.770;2024-02-23T00:15:51;14.10;55.40
80495;DHT22;69819;48.798;11.770;2024-02-23T00:18:17;14.20;55.50
80495;DHT22;69819;48.798;11.770;2024-02-23T00:20:43;14.20;55.50
80495;DHT22;69819;48.798;11.770;2024-02-23T00:23:09;14.20;55.50
80495;DHT22;69819;48.798;11.770;2024-02-23T00:25:35;14.20;55.50
80495;DHT22;69819;48.798;11.770;2024-02-23T00:28:00;14.20;55.50
80495;DHT22;69819;48.798;11.770;2024-02-23T00:30:26;14.20;55.40
80495;DHT22;69819;48.798;11.770;2024-02-23T00:32:52;14.20;55.50
80495;DHT22;69819;48.798;11.770;2024-02-23T00:35:18;14.20;55.50
80495;DHT22;69819;48.798;11.770;2024-02-23T00:37:44;14.20;55.50
80495;DHT22;69819;48.798;11.770;2024-02-23T00:40:10;14.20;55.50
80495;DHT22;69819;48.798;11.770;2024-02-23T00:42:37;14.30;55.60
80495;DHT22;69819;48.798;11.770;2024-02-23T00:45:04;14.20;55.40
80495;DHT22;69819;48.798;11.770;2024-02-23T00:47:30;14.20;55.50
80495;DHT22;69819;48.798;11.770;2024-02-23T00:49:56;14.20;55.50
80495;DHT22;69819;48.798;11.770;2024-02-23T00:52:22;14.30;55.60
80495;DHT22;69819;48.798;11.770;2024-02-23T00:54:47;14.30;55.60
80495;DHT22;69819;48.798;11.770;2024-02-23T00:57:13;14.20;55.50
80495;DHT22;69819;48.798;11.770;2024-02-23T00:59:39;14.30;56.10
80495;DHT22;69819;48.798;11.770;2024-02-23T01:02:05;14.30;55.30
80495;DHT22;69819;48.798;11.770;2024-02-23T01:04:31;14.30;55.30
80495;DHT22;69819;48.798;11.770;2024-02-23T01:06:58;14.30;55.20
80495;DHT22;69819;48.798;11.770;2024-02-23T01:09:24;14.30;55.10
80495;DHT22;69819;48.798;11.770;2024-02-23T01:11:49;14.30;54.90
80495;DHT22;69819;48.798;11.770;2024-02-23T01:14:16;14.40;55.00
80495;DHT22;69819;48.798;11.770;2024-02-23T01:16:42;14.40;54.90
80495;DHT22;69819;48.798;11.770;2024-02-23T01:19:08;14.40;54.80
80495;DHT22;69819;48.798;11.770;2024-02-23T01:21:34;14.30;54.60
80495;DHT22;69819;48.798;11.770;2024-02-23T01:24:00;14.30;55.10
80495;DHT22;69819;48.798;11.770;2024-02-23T01:26:26;14.30;54.50
80495;DHT22;69819;48.798;11.770;2024-02-23T01:28:53;14.40;54.50
80495;DHT22;69819;48.798;11.770;2024-02-23T01:31:19;14.30;54.30
80495;DHT22;69819;48.798;11.770;2024-02-23T01:33:45;14.30;54.30
80495;DHT22;69819;48.798;11.770;2024-02-23T01:36:10;14.30;54.20
80495;DHT22;69819;48.798;11.770;2024-02-23T01:38:36;14.30;54.20
80495;DHT22;69819;48.798;11.770;2024-02-23T01:41:02;14.30;54.00
80495;DHT22;69819;48.798;11.770;2024-02-23T01:43:29;14.20;54.00
80495;DHT22;69819;48.798;11.770;2024-02-23T01:45:55;14.20;53.80
80495;DHT22;69819;48.798;11.770;2024-02-23T01:48:21;14.10;53.50
80495;DHT22;69819;48.798;11.770;2024-02-23T01:50:47;14.00;53.30
80495;DHT22;69819;48.798;11.770;2024-02-23T01:53:13;13.90;53.30
80495;DHT22;69819;48.798;11.770;2024-02-23T01:55:43;13.80;53.20
80495;DHT22;69819;48.798;11.770;2024-02-23T01:58:11;13.70;53.20
80495;DHT22;69819;48.798;11.770;2024-02-23T02:00:37;13.60;53.10
80495;DHT22;69819;48.798;11.770;2024-02-23T02:03:03;13.50;53.10
80495;DHT22;69819;48.798;11.770;2024-02-23T02:05:30;13.40;53.10
80495;DHT22;69819;48.798;11.770;2024-02-23T02:07:56;13.30;53.20
80495;DHT22;69819;48.798;11.770;2024-02-23T02:10:25;13.10;53.00
80495;DHT22;69819;48.798;11.770;2024-02-23T02:12:52;13.10;53.10
80495;DHT22;69819;48.798;11.770;2024-02-23T02:15:18;13.00;53.10
80495;DHT22;69819;48.798;11.770;2024-02-23T02:17:44;12.90;53.10
80495;DHT22;69819;48.798;11.770;2024-02-23T02:20:12;12.80;53.60
80495;DHT22;69819;48.798;11.770;2024-02-23T02:22:39;12.70;53.00
80495;DHT22;69819;48.798;11.770;2024-02-23T02:25:05;12.70;53.00
80495;DHT22;69819;48.798;11.770;2024-02-23T02:27:32;12.60;53.10
80495;DHT22;69819;48.798;11.770;2024-02-23T02:29:58;12.60;53.10
80495;DHT22;69819;48.798;11.770;2024-02-23T02:32:24;12.50;53.10
80495;DHT22;69819;48.798;11.770;2024-02-23T02:34:50;12.50;53.10
80495;DHT22;69819;48.798;11.770;2024-02-23T02:37:16;12.40;53.00
80495;DHT22;69819;48.798;11.770;2024-02-23T02:39:41;12.40;53.10
80495;DHT22;69819;48.798;11.770;2024-02-23T02:42:07;12.30;53.00
80495;DHT22;69819;48.798;11.770;2024-02-23T02:44:33;12.30;53.00
80495;DHT22;69819;48.798;11.770;2024-02-23T02:46:59;12.20;53.00
80495;DHT22;69819;48.798;11.770;2024-02-23T02:49:25;12.20;53.10
80495;DHT22;69819;48.798;11.770;2024-02-23T02:51:51;12.20;53.00
80495;DHT22;69819;48.798;11.770;2024-02-23T02:54:17;12.10;52.90
80495;DHT22;69819;48.798;11.770;2024-02-23T02:56:43;12.10;52.90
80495;DHT22;69819;48.798;11.770;2024-02-23T02:59:11;12.10;52.90
80495;DHT22;69819;48.798;11.770;2024-02-23T03:01:38;12.00;52.90
80495;DHT22;69819;48.798;11.770;2024-02-23T03:04:05;12.00;52.90
80495;DHT22;69819;48.798;11.770;2024-02-23T03:06:31;12.00;52.90
80495;DHT22;69819;48.798;11.770;2024-02-23T03:08:56;11.90;52.80
80495;DHT22;69819;48.798;11.770;2024-02-23T03:11:22;11.90;52.80
80495;DHT22;69819;48.798;11.770;2024-02-23T03:13:48;11.90;52.90
80495;DHT22;69819;48.798;11.770;2024-02-23T03:16:17;11.90;52.90
80495;DHT22;69819;48.798;11.770;2024-02-23T03:18:44;11.90;52.90
80495;DHT22;69819;48.798;11.770;2024-02-23T03:21:10;11.80;52.70
80495;DHT22;69819;48.798;11.770;2024-02-23T03:23:36;11.80;52.80
80495;DHT22;69819;48.798;11.770;2024-02-23T03:26:02;11.80;52.70
80495;DHT22;69819;48.798;11.770;2024-02-23T03:28:28;11.80;52.80
80495;DHT22;69819;48.798;11.770;2024-02-23T03:30:54;11.70;52.70
80495;DHT22;69819;48.798;11.770;2024-02-23T03:33:20;11.70;52.70
80495;DHT22;69819;48.798;11.770;2024-02-23T03:35:45;11.70;52.80
80495;DHT22;69819;48.798;11.770;2024-02-23T03:38:11;11.60;52.70
80495;DHT22;69819;48.798;11.770;2024-02-23T03:40:37;11.60;52.70
80495;DHT22;69819;48.798;11.770;2024-02-23T03:43:03;11.60;52.70
80495;DHT22;69819;48.798;11.770;2024-02-23T03:45:29;11.50;52.80
80495;DHT22;69819;48.798;11.770;2024-02-23T03:47:55;11.50;52.80
80495;DHT22;69819;48.798;11.770;2024-02-23T03:50:20;11.50;52.80
80495;DHT22;69819;48.798;11.770;2024-02-23T03:52:46;11.50;52.80
80495;DHT22;69819;48.798;11.770;2024-02-23T03:55:12;11.40;52.70
80495;DHT22;69819;48.798;11.770;2024-02-23T03:57:38;11.40;52.70
80495;DHT22;69819;48.798;11.770;2024-02-23T04:00:04;11.40;52.80
80495;DHT22;69819;48.798;11.770;2024-02-23T04:02:31;11.40;52.80
80495;DHT22;69819;48.798;11.770;2024-02-23T04:04:57;11.30;52.80
80495;DHT22;69819;48.798;11.770;2024-02-23T04:07:23;11.30;52.80
80495;DHT22;69819;48.798;11.770;2024-02-23T04:09:49;11.30;52.80
80495;DHT22;69819;48.798;11.770;2024-02-23T04:12:18;11.30;52.80
80495;DHT22;69819;48.798;11.770;2024-02-23T04:14:45;11.20;52.80
80495;DHT22;69819;48.798;11.770;2024-02-23T04:17:11;11.20;52.90
80495;DHT22;69819;48.798;11.770;2024-02-23T04:19:37;11.20;52.90
80495;DHT22;69819;48.798;11.770;2024-02-23T04:22:05;11.20;53.00
80495;DHT22;69819;48.798;11.770;2024-02-23T04:24:31;11.10;53.00
80495;DHT22;69819;48.798;11.770;2024-02-23T04:26:57;11.10;53.00
80495;DHT22;69819;48.798;11.770;2024-02-23T04:29:23;11.20;53.10
80495;DHT22;69819;48.798;11.770;2024-02-23T04:31:48;11.10;53.00
80495;DHT22;69819;48.798;11.770;2024-02-23T04:34:15;11.10;52.90
80495;DHT22;69819;48.798;11.770;2024-02-23T04:36:41;11.10;53.00
80495;DHT22;69819;48.798;11.770;2024-02-23T04:39:08;11.10;53.00
80495;DHT22;69819;48.798;11.770;2024-02-23T04:41:33;11.10;53.00
80495;DHT22;69819;48.798;11.770;2024-02-23T04:43:59;11.10;53.00
80495;DHT22;69819;48.798;11.770;2024-02-23T04:46:26;11.00;52.90
80495;DHT22;69819;48.798;11.770;2024-02-23T04:48:52;11.00;53.00
80495;DHT22;69819;48.798;11.770;2024-02-23T04:51:18;11.00;53.00
80495;DHT22;69819;48.798;11.770;2024-02-23T04:53:44;11.00;53.00
80495;DHT22;69819;48.798;11.770;2024-02-23T04:56:10;11.00;53.00
80495;DHT22;69819;48.798;11.770;2024-02-23T04:58:35;10.90;52.90
80495;DHT22;69819;48.798;11.770;2024-02-23T05:01:03;10.90;52.90
80495;DHT22;69819;48.798;11.770;2024-02-23T05:03:29;10.90;52.90
80495;DHT22;69819;48.798;11.770;2024-02-23T05:05:54;10.90;53.00
80495;DHT22;69819;48.798;11.770;2024-02-23T05:08:20;10.90;53.00
80495;DHT22;69819;48.798;11.770;2024-02-23T05:10:47;10.90;53.10
80495;DHT22;69819;48.798;11.770;2024-02-23T05:13:13;10.80;53.00
80495;DHT22;69819;48.798;11.770;2024-02-23T05:15:39;10.80;53.00
80495;DHT22;69819;48.798;11.770;2024-02-23T05:18:05;10.80;53.10
80495;DHT22;69819;48.798;11.770;2024-02-23T05:20:31;10.80;53.10
80495;DHT22;69819;48.798;11.770;2024-02-23T05:22:57;10.80;53.10
80495;DHT22;69819;48.798;11.770;2024-02-23T05:25:23;10.80;53.20
80495;DHT22;69819;48.798;11.770;2024-02-23T05:27:51;10.70;53.00
80495;DHT22;69819;48.798;11.770;2024-02-23T05:30:16;10.70;53.00
80495;DHT22;69819;48.798;11.770;2024-02-23T05:32:42;10.70;53.00
80495;DHT22;69819;48.798;11.770;2024-02-23T05:35:08;10.70;53.00
80495;DHT22;69819;48.798;11.770;2024-02-23T05:37:35;10.70;53.10
80495;DHT22;69819;48.798;11.770;2024-02-23T05:40:03;10.70;53.10
80495;DHT22;69819;48.798;11.770;2024-02-23T05:42:33;10.60;53.10
80495;DHT22;69819;48.798;11.770;2024-02-23T05:44:58;10.60;53.00
80495;DHT22;69819;48.798;11.770;2024-02-23T05:47:24;10.60;53.10
80495;DHT22;69819;48.798;11.770;2024-02-23T05:49:50;10.60;53.00
80495;DHT22;69819;48.798;11.770;2024-02-23T05:52:16;10.60;53.10
80495;DHT22;69819;48.798;11.770;2024-02-23T05:54:42;10.60;53.10
80495;DHT22;69819;48.798;11.770;2024-02-23T05:57:07;10.60;53.10
80495;DHT22;69819;48.798;11.770;2024-02-23T05:59:33;10.50;53.00
80495;DHT22;69819;48.798;11.770;2024-02-23T06:01:59;10.50;53.00
80495;DHT22;69819;48.798;11.770;2024-02-23T06:04:25;10.50;53.10
80495;DHT22;69819;48.798;11.770;2024-02-23T06:06:52;10.50;53.10
80495;DHT22;69819;48.798;11.770;2024-02-23T06:09:17;10.50;53.10
80495;DHT22;69819;48.798;11.770;2024-02-23T06:11:44;10.50;53.10
80495;DHT22;69819;48.798;11.770;2024-02-23T06:14:10;10.50;53.10
80495;DHT22;69819;48.798;11.770;2024-02-23T06:16:36;10.50;53.10
80495;DHT22;69819;48.798;11.770;2024-02-23T06:19:03;10.50;53.10
80495;DHT22;69819;48.798;11.770;2024-02-23T06:21:29;10.50;53.10
80495;DHT22;69819;48.798;11.770;2024-02-23T06:23:55;10.50;53.20
80495;DHT22;69819;48.798;11.770;2024-02-23T06:26:21;10.50;53.20
80495;DHT22;69819;48.798;11.770;2024-02-23T06:28:47;10.50;53.20
80495;DHT22;69819;48.798;11.770;2024-02-23T06:31:14;10.50;53.20
80495;DHT22;69819;48.798;11.770;2024-02-23T06:33:40;10.50;53.30
80495;DHT22;69819;48.798;11.770;2024-02-23T06:36:09;10.50;53.30
80495;DHT22;69819;48.798;11.770;2024-02-23T06:38:35;10.50;53.30
80495;DHT22;69819;48.798;11.770;2024-02-23T06:41:01;10.50;53.30
80495;DHT22;69819;48.798;11.770;2024-02-23T06:43:27;10.50;53.90
80495;DHT22;69819;48.798;11.770;2024-02-23T06:45:53;10.50;53.30
80495;DHT22;69819;48.798;11.770;2024-02-23T06:48:19;10.50;53.30
80495;DHT22;69819;48.798;11.770;2024-02-23T06:50:45;10.50;53.30
80495;DHT22;69819;48.798;11.770;2024-02-23T06:53:11;10.60;53.50
80495;DHT22;69819;48.798;11.770;2024-02-23T06:55:36;10.60;53.40
80495;DHT22;69819;48.798;11.770;2024-02-23T06:58:02;10.60;53.50
80495;DHT22;69819;48.798;11.770;2024-02-23T07:00:30;10.60;53.40
80495;DHT22;69819;48.798;11.770;2024-02-23T07:02:56;10.60;53.40
80495;DHT22;69819;48.798;11.770;2024-02-23T07:05:24;10.60;53.40
80495;DHT22;69819;48.798;11.770;2024-02-23T07:07:51;10.70;53.50
80495;DHT22;69819;48.798;11.770;2024-02-23T07:10:17;10.70;53.40
80495;DHT22;69819;48.798;11.770;2024-02-23T07:12:43;10.70;53.50
80495;DHT22;69819;48.798;11.770;2024-02-23T07:15:10;10.70;53.40
80495;DHT22;69819;48.798;11.770;2024-02-23T07:17:36;10.70;53.40
80495;DHT22;69819;48.798;11.770;2024-02-23T07:20:01;10.70;53.40
80495;DHT22;69819;48.798;11.770;2024-02-23T07:22:33;10.70;53.40
80495;DHT22;69819;48.798;11.770;2024-02-23T07:24:59;10.80;53.50
80495;DHT22;69819;48.798;11.770;2024-02-23T07:27:27;10.80;53.40
80495;DHT22;69819;48.798;11.770;2024-02-23T07:29:52;10.80;53.30
80495;DHT22;69819;48.798;11.770;2024-02-23T07:32:18;10.90;53.40
80495;DHT22;69819;48.798;11.770;2024-02-23T07:34:44;10.90;53.30
80495;DHT22;69819;48.798;11.770;2024-02-23T07:37:10;10.90;53.30
80495;DHT22;69819;48.798;11.770;2024-02-23T07:39:35;10.90;53.30
80495;DHT22;69819;48.798;11.770;2024-02-23T07:42:01;11.00;53.30
80495;DHT22;69819;48.798;11.770;2024-02-23T07:44:28;11.00;53.20
80495;DHT22;69819;48.798;11.770;2024-02-23T07:46:54;11.00;53.20
80495;DHT22;69819;48.798;11.770;2024-02-23T07:49:21;11.10;53.30
80495;DHT22;69819;48.798;11.770;2024-02-23T07:51:47;11.10;53.20
80495;DHT22;69819;48.798;11.770;2024-02-23T07:54:14;11.20;53.20
80495;DHT22;69819;48.798;11.770;2024-02-23T07:56:39;11.10;53.00
80495;DHT22;69819;48.798;11.770;2024-02-23T07:59:05;11.20;53.10
80495;DHT22;69819;48.798;11.770;2024-02-23T08:01:31;11.20;53.10
80495;DHT22;69819;48.798;11.770;2024-02-23T08:03:57;11.30;53.20
80495;DHT22;69819;48.798;11.770;2024-02-23T08:06:23;11.30;53.10
80495;DHT22;69819;48.798;11.770;2024-02-23T08:08:49;11.30;53.10
80495;DHT22;69819;48.798;11.770;2024-02-23T08:11:14;11.40;53.20
80495;DHT22;69819;48.798;11.770;2024-02-23T08:13:40;11.40;53.10
80495;DHT22;69819;48.798;11.770;2024-02-23T08:16:06;11.40;53.10
80495;DHT22;69819;48.798;11.770;2024-02-23T08:18:32;11.50;53.20
80495;DHT22;69819;48.798;11.770;2024-02-23T08:20:58;11.50;53.10
80495;DHT22;69819;48.798;11.770;2024-02-23T08:23:24;11.60;53.10
80495;DHT22;69819;48.798;11.770;2024-02-23T08:25:50;11.60;53.10
80495;DHT22;69819;48.798;11.770;2024-02-23T08:28:16;11.60;52.90
80495;DHT22;69819;48.798;11.770;2024-02-23T08:30:42;11.70;53.00
80495;DHT22;69819;48.798;11.770;2024-02-23T08:33:08;11.70;53.00
80495;DHT22;69819;48.798;11.770;2024-02-23T08:35:35;11.80;53.00
80495;DHT22;69819;48.798;11.770;2024-02-23T08:38:01;11.80;53.50
80495;DHT22;69819;48.798;11.770;2024-02-23T08:40:27;11.90;53.00
80495;DHT22;69819;48.798;11.770;2024-02-23T08:42:52;11.90;52.90
80495;DHT22;69819;48.798;11.770;2024-02-23T08:45:18;12.00;52.80
80495;DHT22;69819;48.798;11.770;2024-02-23T08:47:44;12.10;52.80
80495;DHT22;69819;48.798;11.770;2024-02-23T08:50:10;12.10;52.80
80495;DHT22;69819;48.798;11.770;2024-02-23T08:52:36;12.20;52.70
80495;DHT22;69819;48.798;11.770;2024-02-23T08:55:02;12.30;52.70
80495;DHT22;69819;48.798;11.770;2024-02-23T08:57:28;12.30;52.60
80495;DHT22;69819;48.798;11.770;2024-02-23T08:59:54;12.40;52.50
80495;DHT22;69819;48.798;11.770;2024-02-23T09:02:26;12.50;52.60
80495;DHT22;69819;48.798;11.770;2024-02-23T09:04:52;12.50;52.50
80495;DHT22;69819;48.798;11.770;2024-02-23T09:07:18;12.60;52.40
80495;DHT22;69819;48.798;11.770;2024-02-23T09:09:46;12.60;52.40
80495;DHT22;69819;48.798;11.770;2024-02-23T09:12:14;12.70;52.40
80495;DHT22;69819;48.798;11.770;2024-02-23T09:14:42;12.80;52.30
80495;DHT22;69819;48.798;11.770;2024-02-23T09:17:09;12.80;52.30
80495;DHT22;69819;48.798;11.770;2024-02-23T09:19:36;12.90;52.40
80495;DHT22;69819;48.798;11.770;2024-02-23T09:22:03;12.90;52.30
80495;DHT22;69819;48.798;11.770;2024-02-23T09:24:28;13.00;52.30
80495;DHT22;69819;48.798;11.770;2024-02-23T09:26:54;13.00;52.20
80495;DHT22;69819;48.798;11.770;2024-02-23T09:29:20;13.00;52.20
80495;DHT22;69819;48.798;11.770;2024-02-23T09:31:47;13.10;52.20
80495;DHT22;69819;48.798;11.770;2024-02-23T09:34:13;13.10;52.20
80495;DHT22;69819;48.798;11.770;2024-02-23T09:36:39;13.10;52.00
80495;DHT22;69819;48.798;11.770;2024-02-23T09:39:05;13.10;51.80
80495;DHT22;69819;48.798;11.770;2024-02-23T09:41:30;13.20;51.80
80495;DHT22;69819;48.798;11.770;2024-02-23T09:44:01;13.20;51.80
80495;DHT22;69819;48.798;11.770;2024-02-23T09:46:27;13.20;51.80
80495;DHT22;69819;48.798;11.770;2024-02-23T09:48:55;13.20;51.80
80495;DHT22;69819;48.798;11.770;2024-02-23T09:51:22;13.20;51.70
80495;DHT22;69819;48.798;11.770;2024-02-23T09:53:52;13.20;51.80
80495;DHT22;69819;48.798;11.770;2024-02-23T09:56:18;13.20;52.30
80495;DHT22;69819;48.798;11.770;2024-02-23T09:58:47;13.20;51.90
80495;DHT22;69819;48.798;11.770;2024-02-23T10:01:21;13.20;51.70
80495;DHT22;69819;48.798;11.770;2024-02-23T10:03:57;13.30;51.90
80495;DHT22;69819;48.798;11.770;2024-02-23T10:06:27;13.30;51.90
80495;DHT22;69819;48.798;11.770;2024-02-23T10:08:53;13.30;51.90
80495;DHT22;69819;48.798;11.770;2024-02-23T10:11:23;13.20;51.90
80495;DHT22;69819;48.798;11.770;2024-02-23T10:13:50;13.20;51.90
80495;DHT22;69819;48.798;11.770;2024-02-23T10:16:18;13.20;52.00
80495;DHT22;69819;48.798;11.770;2024-02-23T10:18:47;13.20;52.10
80495;DHT22;69819;48.798;11.770;2024-02-23T10:21:17;13.10;52.10
80495;DHT22;69819;48.798;11.770;2024-02-23T10:23:47;13.10;52.20
80495;DHT22;69819;48.798;11.770;2024-02-23T10:26:15;13.20;52.80
80495;DHT22;69819;48.798;11.770;2024-02-23T10:28:47;13.20;52.40
80495;DHT22;69819;48.798;11.770;2024-02-23T10:31:13;13.20;52.40
80495;DHT22;69819;48.798;11.770;2024-02-23T10:33:39;13.30;52.40
80495;DHT22;69819;48.798;11.770;2024-02-23T10:36:07;13.30;52.30
80495;DHT22;69819;48.798;11.770;2024-02-23T10:38:38;13.30;52.30
80495;DHT22;69819;48.798;11.770;2024-02-23T10:41:05;13.30;52.30
80495;DHT22;69819;48.798;11.770;2024-02-23T10:43:47;13.30;52.20
80495;DHT22;69819;48.798;11.770;2024-02-23T10:46:14;13.30;52.30
80495;DHT22;69819;48.798;11.770;2024-02-23T10:48:44;13.30;52.20
80495;DHT22;69819;48.798;11.770;2024-02-23T10:51:13;13.30;52.20
80495;DHT22;69819;48.798;11.770;2024-02-23T10:53:40;13.30;52.30
80495;DHT22;69819;48.798;11.770;2024-02-23T10:56:07;13.30;52.30
80495;DHT22;69819;48.798;11.770;2024-02-23T10:58:33;13.30;52.30
80495;DHT22;69819;48.798;11.770;2024-02-23T11:01:05;13.40;52.40
80495;DHT22;69819;48.798;11.770;2024-02-23T11:03:36;13.40;52.40
80495;DHT22;69819;48.798;11.770;2024-02-23T11:06:06;13.40;52.40
80495;DHT22;69819;48.798;11.770;2024-02-23T11:08:33;13.50;52.50
80495;DHT22;69819;48.798;11.770;2024-02-23T11:11:09;13.50;52.50
80495;DHT22;69819;48.798;11.770;2024-02-23T11:13:37;13.60;52.50
80495;DHT22;69819;48.798;11.770;2024-02-23T11:16:04;13.60;52.60
80495;DHT22;69819;48.798;11.770;2024-02-23T11:18:32;13.60;52.40
80495;DHT22;69819;48.798;11.770;2024-02-23T11:21:05;13.70;53.00
80495;DHT22;69819;48.798;11.770;2024-02-23T11:26:10;13.80;52.30
80495;DHT22;69819;48.798;11.770;2024-02-23T11:28:50;13.90;52.50
80495;DHT22;69819;48.798;11.770;2024-02-23T11:31:29;14.00;52.20
80495;DHT22;69819;48.798;11.770;2024-02-23T11:33:56;14.00;52.00
80495;DHT22;69819;48.798;11.770;2024-02-23T11:36:32;14.00;52.00
80495;DHT22;69819;48.798;11.770;2024-02-23T11:39:00;14.10;51.80
80495;DHT22;69819;48.798;11.770;2024-02-23T11:41:28;14.10;51.90
80495;DHT22;69819;48.798;11.770;2024-02-23T11:43:55;14.10;51.80
80495;DHT22;69819;48.798;11.770;2024-02-23T11:46:22;14.10;51.70
80495;DHT22;69819;48.798;11.770;2024-02-23T11:48:49;14.10;51.50
80495;DHT22;69819;48.798;11.770;2024-02-23T11:51:22;14.10;51.40
80495;DHT22;69819;48.798;11.770;2024-02-23T11:53:49;14.10;51.30
80495;DHT22;69819;48.798;11.770;2024-02-23T11:56:15;14.10;51.30
80495;DHT22;69819;48.798;11.770;2024-02-23T11:58:42;14.10;51.30
80495;DHT22;69819;48.798;11.770;2024-02-23T12:01:09;14.10;51.30
80495;DHT22;69819;48.798;11.770;2024-02-23T12:03:34;14.10;51.30
80495;DHT22;69819;48.798;11.770;2024-02-23T12:06:01;14.10;51.20
80495;DHT22;69819;48.798;11.770;2024-02-23T12:08:30;14.20;51.30
80495;DHT22;69819;48.798;11.770;2024-02-23T12:11:06;14.10;51.20
80495;DHT22;69819;48.798;11.770;2024-02-23T12:13:34;14.20;51.30
80495;DHT22;69819;48.798;11.770;2024-02-23T12:16:02;14.20;51.30
80495;DHT22;69819;48.798;11.770;2024-02-23T12:18:28;14.20;51.30
80495;DHT22;69819;48.798;11.770;2024-02-23T12:21:01;14.20;51.20
80495;DHT22;69819;48.798;11.770;2024-02-23T12:23:40;14.30;51.10
80495;DHT22;69819;48.798;11.770;2024-02-23T12:26:07;14.30;51.10
80495;DHT22;69819;48.798;11.770;2024-02-23T12:28:33;14.30;51.00
80495;DHT22;69819;48.798;11.770;2024-02-23T12:31:03;14.40;51.00
80495;DHT22;69819;48.798;11.770;2024-02-23T12:33:34;14.40;50.90
80495;DHT22;69819;48.798;11.770;2024-02-23T12:36:03;14.40;50.80
80495;DHT22;69819;48.798;11.770;2024-02-23T12:38:30;14.50;50.80
80495;DHT22;69819;48.798;11.770;2024-02-23T12:40:56;14.50;50.80
80495;DHT22;69819;48.798;11.770;2024-02-23T12:43:23;14.50;50.70
80495;DHT22;69819;48.798;11.770;2024-02-23T12:45:53;14.50;50.60
80495;DHT22;69819;48.798;11.770;2024-02-23T12:48:20;14.50;50.50
80495;DHT22;69819;48.798;11.770;2024-02-23T12:50:48;14.50;50.50
80495;DHT22;69819;48.798;11.770;2024-02-23T12:53:34;14.50;50.40
80495;DHT22;69819;48.798;11.770;2024-02-23T12:56:11;14.40;50.00
80495;DHT22;69819;48.798;11.770;2024-02-23T12:58:42;14.40;50.10
80495;DHT22;69819;48.798;11.770;2024-02-23T13:01:09;14.40;50.00
80495;DHT22;69819;48.798;11.770;2024-02-23T13:03:36;14.30;50.30
80495;DHT22;69819;48.798;11.770;2024-02-23T13:06:04;14.20;50.10
80495;DHT22;69819;48.798;11.770;2024-02-23T13:08:30;14.20;50.20
80495;DHT22;69819;48.798;11.770;2024-02-23T13:10:57;14.20;50.30
80495;DHT22;69819;48.798;11.770;2024-02-23T13:13:23;14.10;50.10
80495;DHT22;69819;48.798;11.770;2024-02-23T13:15:50;14.00;50.10
80495;DHT22;69819;48.798;11.770;2024-02-23T13:18:17;14.00;50.10
80495;DHT22;69819;48.798;11.770;2024-02-23T13:20:44;14.00;50.00
80495;DHT22;69819;48.798;11.770;2024-02-23T13:23:11;14.00;50.00
80495;DHT22;69819;48.798;11.770;2024-02-23T13:25:39;13.90;49.80
80495;DHT22;69819;48.798;11.770;2024-02-23T13:28:06;13.90;49.90
80495;DHT22;69819;48.798;11.770;2024-02-23T13:30:34;13.90;49.90
80495;DHT22;69819;48.798;11.770;2024-02-23T13:33:00;13.80;49.90
80495;DHT22;69819;48.798;11.770;2024-02-23T13:35:26;13.80;49.90
80495;DHT22;69819;48.798;11.770;2024-02-23T13:37:52;13.80;49.90
80495;DHT22;69819;48.798;11.770;2024-02-23T13:40:19;13.80;50.00
80495;DHT22;69819;48.798;11.770;2024-02-23T13:42:45;13.80;49.90
80495;DHT22;69819;48.798;11.770;2024-02-23T13:45:19;13.80;49.70
80495;DHT22;69819;48.798;11.770;2024-02-23T13:47:56;13.80;49.70
80495;DHT22;69819;48.798;11.770;2024-02-23T13:50:26;13.80;49.50
80495;DHT22;69819;48.798;11.770;2024-02-23T13:52:53;13.90;49.80
80495;DHT22;69819;48.798;11.770;2024-02-23T13:55:20;13.90;49.70
80495;DHT22;69819;48.798;11.770;2024-02-23T13:57:49;13.90;49.60
80495;DHT22;69819;48.798;11.770;2024-02-23T14:00:16;13.90;49.60
80495;DHT22;69819;48.798;11.770;2024-02-23T14:02:44;13.90;49.60
80495;DHT22;69819;48.798;11.770;2024-02-23T14:05:10;13.90;49.60
80495;DHT22;69819;48.798;11.770;2024-02-23T14:07:36;13.90;49.60
80495;DHT22;69819;48.798;11.770;2024-02-23T14:10:02;13.90;49.60
80495;DHT22;69819;48.798;11.770;2024-02-23T14:12:29;13.90;49.50
80495;DHT22;69819;48.798;11.770;2024-02-23T14:14:55;13.90;49.50
80495;DHT22;69819;48.798;11.770;2024-02-23T14:17:21;13.80;49.30
80495;DHT22;69819;48.798;11.770;2024-02-23T14:19:47;13.80;49.40
80495;DHT22;69819;48.798;11.770;2024-02-23T14:22:13;13.80;49.40
80495;DHT22;69819;48.798;11.770;2024-02-23T14:24:38;13.80;49.40
80495;DHT22;69819;48.798;11.770;2024-02-23T14:27:05;13.80;50.00
80495;DHT22;69819;48.798;11.770;2024-02-23T14:29:31;13.80;49.40
80495;DHT22;69819;48.798;11.770;2024-02-23T14:31:58;13.80;49.20
80495;DHT22;69819;48.798;11.770;2024-02-23T14:34:25;13.80;49.00
80495;DHT22;69819;48.798;11.770;2024-02-23T14:36:50;13.80;49.00
80495;DHT22;69819;48.798;11.770;2024-02-23T14:39:16;13.80;48.90
80495;DHT22;69819;48.798;11.770;2024-02-23T14:41:42;13.80;48.90
80495;DHT22;69819;48.798;11.770;2024-02-23T14:44:08;13.70;48.90
80495;DHT22;69819;48.798;11.770;2024-02-23T14:46:34;13.70;48.80
80495;DHT22;69819;48.798;11.770;2024-02-23T14:49:00;13.60;48.80
80495;DHT22;69819;48.798;11.770;2024-02-23T14:51:25;13.60;48.70
80495;DHT22;69819;48.798;11.770;2024-02-23T14:53:51;13.50;48.60
80495;DHT22;69819;48.798;11.770;2024-02-23T14:56:17;13.40;48.50
80495;DHT22;69819;48.798;11.770;2024-02-23T14:58:43;13.30;48.50
80495;DHT22;69819;48.798;11.770;2024-02-23T15:01:08;13.20;48.40
80495;DHT22;69819;48.798;11.770;2024-02-23T15:03:34;13.10;48.30
80495;DHT22;69819;48.798;11.770;2024-02-23T15:06:01;13.10;48.40
80495;DHT22;69819;48.798;11.770;2024-02-23T15:08:27;13.00;48.30
80495;DHT22;69819;48.798;11.770;2024-02-23T15:10:53;12.90;48.20
80495;DHT22;69819;48.798;11.770;2024-02-23T15:13:19;12.80;48.30
80495;DHT22;69819;48.798;11.770;2024-02-23T15:15:45;12.80;48.40